createdAt,value
2022-12-17T00:00:37.268Z,39.03
2022-12-17T00:03:22.756Z,40.78
2022-12-17T00:06:08.378Z,41.08
2022-12-17T00:08:53.713Z,38.80
2022-12-17T00:11:38.888Z,37.03
2022-12-17T00:14:24.272Z,38.58
2022-12-17T00:17:09.716Z,38.35
2022-12-17T00:19:56.339Z,35.72
2022-12-17T00:22:41.757Z,37.17
2022-12-17T00:25:27.585Z,44.25
2022-12-17T00:28:12.858Z,40.33
2022-12-17T00:30:58.207Z,40.55
2022-12-17T00:33:43.389Z,34.70
2022-12-17T00:36:28.641Z,39.20
2022-12-17T00:39:33.727Z,42.30
2022-12-17T00:42:19.139Z,38.67
2022-12-17T00:45:04.556Z,37.80
2022-12-17T00:47:50.071Z,42.67
2022-12-17T00:50:35.239Z,38.97
2022-12-17T00:53:20.493Z,40.65
2022-12-17T00:56:06.241Z,37.53
2022-12-17T00:58:51.571Z,37.10
2022-12-17T01:01:37.318Z,39.00
2022-12-17T01:04:22.795Z,41.35
2022-12-17T01:07:08.088Z,39.97
2022-12-17T01:09:53.442Z,35.33
2022-12-17T01:12:39.044Z,38.72
2022-12-17T01:15:24.825Z,40.72
2022-12-17T01:18:10.023Z,41.72
2022-12-17T01:20:55.180Z,37.85
2022-12-17T01:23:41.978Z,41.25
2022-12-17T01:26:27.518Z,40.10
2022-12-17T01:29:12.645Z,38.30
2022-12-17T01:31:58.085Z,41.60
2022-12-17T01:34:46.588Z,37.25
2022-12-17T01:37:31.929Z,36.00
2022-12-17T01:40:17.235Z,36.58
2022-12-17T01:43:04.460Z,40.45
2022-12-17T01:46:03.986Z,40.08
2022-12-17T01:48:53.375Z,37.40
2022-12-17T01:51:38.475Z,40.90
2022-12-17T01:54:24.986Z,39.33
2022-12-17T01:57:10.321Z,39.47
2022-12-17T02:00:17.369Z,37.85
2022-12-17T02:03:04.015Z,39.53
2022-12-17T02:05:58.119Z,35.95
2022-12-17T02:08:52.033Z,40.90
2022-12-17T02:11:54.598Z,40.58
2022-12-17T02:14:45.982Z,41.40
2022-12-17T02:17:33.491Z,38.85
2022-12-17T02:20:58.544Z,42.25
2022-12-17T02:23:56.541Z,37.85
2022-12-17T02:27:04.774Z,36.50
2022-12-17T02:30:15.715Z,40.92
2022-12-17T02:33:02.982Z,39.40
2022-12-17T02:35:57.470Z,40.80
2022-12-17T02:38:44.404Z,40.75
2022-12-17T02:41:33.624Z,40.05
2022-12-17T02:44:19.043Z,40.08
2022-12-17T02:47:04.445Z,40.53
2022-12-17T02:49:49.835Z,41.70
2022-12-17T02:52:37.368Z,37.20
2022-12-17T02:55:23.171Z,35.50
2022-12-17T02:58:08.596Z,41.53
2022-12-17T03:00:53.918Z,35.15
2022-12-17T03:03:39.654Z,34.38
2022-12-17T03:06:25.156Z,36.70
2022-12-17T03:09:10.453Z,37.10
2022-12-17T03:11:55.936Z,37.15
2022-12-17T03:14:41.096Z,43.05
2022-12-17T03:17:26.341Z,39.45
2022-12-17T03:20:11.596Z,40.78
2022-12-17T03:22:57.002Z,42.33
2022-12-17T03:25:42.389Z,38.70
2022-12-17T03:28:29.478Z,44.67
2022-12-17T03:31:18.471Z,38.03
2022-12-17T03:34:04.555Z,44.50
2022-12-17T03:36:50.337Z,38.55
2022-12-17T03:39:35.807Z,38.05
2022-12-17T03:42:21.184Z,36.00
2022-12-17T03:45:06.689Z,38.05
2022-12-17T03:47:52.098Z,43.85
2022-12-17T03:50:37.294Z,40.17
2022-12-17T03:53:23.600Z,42.22
2022-12-17T03:56:08.861Z,38.75
2022-12-17T03:58:54.194Z,40.88
2022-12-17T04:01:39.522Z,39.40
2022-12-17T04:04:24.869Z,40.72
2022-12-17T04:07:10.808Z,35.65
2022-12-17T04:09:55.908Z,35.35
2022-12-17T04:12:41.701Z,35.78
2022-12-17T04:15:27.181Z,41.53
2022-12-17T04:18:12.303Z,42.28
2022-12-17T04:20:57.620Z,47.85
2022-12-17T04:23:42.863Z,43.45
2022-12-17T04:26:28.142Z,39.92
2022-12-17T04:29:13.799Z,42.80
2022-12-17T04:31:59.057Z,50.13
2022-12-17T04:34:44.330Z,55.40
2022-12-17T04:37:29.653Z,53.10
2022-12-17T04:40:15.140Z,54.53
2022-12-17T04:43:00.513Z,46.63
2022-12-17T04:45:46.275Z,41.72
2022-12-17T04:48:31.644Z,40.22
2022-12-17T04:51:16.814Z,33.92
2022-12-17T04:54:02.266Z,37.03
2022-12-17T04:56:47.596Z,36.33
2022-12-17T04:59:33.138Z,39.58
2022-12-17T05:02:18.577Z,38.50
2022-12-17T05:05:03.957Z,39.20
2022-12-17T05:07:49.519Z,40.63
2022-12-17T05:10:34.744Z,48.63
2022-12-17T05:13:20.577Z,48.40
2022-12-17T05:16:05.947Z,51.85
2022-12-17T05:18:55.923Z,51.15
2022-12-17T05:21:41.130Z,49.72
2022-12-17T05:24:26.504Z,49.25
2022-12-17T05:27:11.769Z,51.15
2022-12-17T05:29:57.348Z,65.95
2022-12-17T05:32:42.509Z,60.13
2022-12-17T05:35:28.428Z,57.85
2022-12-17T05:38:13.685Z,53.63
2022-12-17T05:40:58.916Z,59.42
2022-12-17T05:43:44.209Z,58.03
2022-12-17T05:46:29.538Z,54.85
2022-12-17T05:49:14.860Z,67.32
2022-12-17T05:52:00.100Z,63.22
2022-12-17T05:54:45.351Z,56.97
2022-12-17T05:57:30.719Z,59.03
2022-12-17T06:00:16.050Z,60.85
2022-12-17T06:03:01.624Z,56.65
2022-12-17T06:05:46.898Z,56.75
2022-12-17T06:08:37.003Z,57.05
2022-12-17T06:11:22.587Z,54.10
2022-12-17T06:14:07.829Z,52.92
2022-12-17T06:16:53.223Z,60.95
2022-12-17T06:19:38.547Z,60.05
2022-12-17T06:22:23.765Z,58.63
2022-12-17T06:25:09.443Z,54.28
2022-12-17T06:27:55.040Z,57.03
2022-12-17T06:30:40.396Z,54.85
2022-12-17T06:33:27.295Z,58.20
2022-12-17T06:36:18.214Z,58.08
2022-12-17T06:39:07.085Z,52.28
2022-12-17T06:41:52.543Z,51.10
2022-12-17T06:44:37.984Z,54.80
2022-12-17T06:47:23.332Z,52.70
2022-12-17T06:50:10.085Z,52.00
2022-12-17T06:52:55.465Z,53.50
2022-12-17T06:55:40.847Z,59.08
2022-12-17T06:58:26.086Z,56.92
2022-12-17T07:01:11.299Z,58.60
2022-12-17T07:03:56.711Z,51.03
2022-12-17T07:06:41.878Z,53.65
2022-12-17T07:09:27.161Z,51.58
2022-12-17T07:12:12.574Z,63.67
2022-12-17T07:14:57.869Z,53.25
2022-12-17T07:17:43.221Z,53.10
2022-12-17T07:20:28.849Z,52.08
2022-12-17T07:23:15.130Z,47.83
2022-12-17T07:26:01.004Z,53.58
2022-12-17T07:28:46.175Z,53.17
2022-12-17T07:31:31.619Z,46.20
2022-12-17T07:34:16.851Z,51.17
2022-12-17T07:37:02.182Z,49.90
2022-12-17T07:39:47.386Z,50.45
2022-12-17T07:42:32.761Z,49.53
2022-12-17T07:45:18.126Z,53.38
2022-12-17T07:48:12.856Z,48.95
2022-12-17T07:50:58.221Z,48.88
2022-12-17T07:53:43.660Z,49.25
2022-12-17T07:56:28.935Z,51.90
2022-12-17T07:59:14.249Z,49.38
2022-12-17T08:01:59.984Z,51.45
2022-12-17T08:04:45.447Z,49.40
2022-12-17T08:07:30.874Z,51.58
2022-12-17T08:10:16.091Z,54.83
2022-12-17T08:13:15.217Z,53.67
2022-12-17T08:16:00.349Z,50.67
2022-12-17T08:18:46.873Z,46.80
2022-12-17T08:21:32.258Z,50.28
2022-12-17T08:24:17.386Z,49.13
2022-12-17T08:27:02.654Z,51.55
2022-12-17T08:29:47.757Z,52.63
2022-12-17T08:32:33.147Z,45.75
2022-12-17T08:35:18.350Z,47.90
2022-12-17T08:38:03.543Z,43.45
2022-12-17T08:40:48.856Z,46.05
2022-12-17T08:43:34.190Z,46.25
2022-12-17T08:46:20.036Z,44.95
2022-12-17T08:49:05.577Z,39.28
2022-12-17T08:51:50.911Z,39.08
2022-12-17T08:54:36.142Z,40.97
2022-12-17T08:57:31.459Z,39.45
2022-12-17T09:00:17.849Z,44.15
2022-12-17T09:03:03.667Z,36.03
2022-12-17T09:05:49.830Z,37.28
2022-12-17T09:08:35.182Z,38.92
2022-12-17T09:11:20.758Z,38.30
2022-12-17T09:14:06.111Z,37.65
2022-12-17T09:16:51.391Z,39.35
2022-12-17T09:19:37.105Z,41.42
2022-12-17T09:22:22.859Z,43.20
2022-12-17T09:25:08.494Z,43.38
2022-12-17T09:27:54.247Z,58.40
2022-12-17T09:30:40.635Z,45.75
2022-12-17T09:33:26.064Z,45.53
2022-12-17T09:36:11.464Z,47.80
2022-12-17T09:39:08.680Z,46.47
2022-12-17T09:41:58.800Z,39.72
2022-12-17T09:44:48.624Z,41.92
2022-12-17T09:47:33.969Z,39.95
2022-12-17T09:50:20.223Z,45.00
2022-12-17T09:53:05.470Z,40.03
2022-12-17T09:55:52.934Z,40.45
2022-12-17T09:58:40.462Z,43.90
2022-12-17T10:01:43.630Z,41.75
2022-12-17T10:04:42.994Z,42.55
2022-12-17T10:07:30.947Z,40.55
2022-12-17T10:10:16.228Z,36.92
2022-12-17T10:13:01.675Z,40.20
2022-12-17T10:15:47.112Z,42.25
2022-12-17T10:18:32.439Z,39.85
2022-12-17T10:21:23.239Z,47.08
2022-12-17T10:24:09.064Z,45.42
2022-12-17T10:26:56.190Z,46.08
2022-12-17T10:29:48.125Z,41.83
2022-12-17T10:32:33.781Z,43.97
2022-12-17T10:35:38.383Z,41.92
2022-12-17T10:38:54.617Z,40.90
2022-12-17T10:41:46.128Z,41.65
2022-12-17T10:44:57.826Z,41.25
2022-12-17T10:47:44.851Z,39.15
2022-12-17T10:50:32.716Z,41.13
2022-12-17T10:53:18.237Z,45.53
2022-12-17T10:56:12.247Z,46.30
2022-12-17T10:59:06.307Z,43.03
2022-12-17T11:01:51.669Z,38.85
2022-12-17T11:04:48.627Z,37.30
2022-12-17T11:07:48.827Z,41.78
2022-12-17T11:10:38.133Z,42.80
2022-12-17T11:13:58.511Z,42.90
2022-12-17T11:16:55.995Z,43.92
2022-12-17T11:20:14.504Z,39.47
2022-12-17T11:23:05.483Z,42.28
2022-12-17T11:26:07.237Z,45.45
2022-12-17T11:28:53.521Z,45.67
2022-12-17T11:31:54.224Z,47.05
2022-12-17T11:34:43.701Z,42.75
2022-12-17T11:37:32.150Z,42.08
2022-12-17T11:40:17.546Z,44.05
2022-12-17T11:43:35.927Z,42.13
2022-12-17T11:46:48.134Z,42.22
2022-12-17T11:50:08.315Z,44.38
2022-12-17T11:53:35.365Z,40.05
2022-12-17T11:56:47.816Z,40.88
2022-12-17T11:59:53.431Z,42.60
2022-12-17T12:03:19.105Z,43.65
2022-12-17T12:06:42.483Z,41.63
2022-12-17T12:09:54.674Z,45.30
2022-12-17T12:13:10.062Z,45.13
2022-12-17T12:16:14.428Z,47.05
2022-12-17T12:19:30.443Z,42.40
2022-12-17T12:22:30.675Z,43.83
2022-12-17T12:25:22.912Z,46.10
2022-12-17T12:28:14.836Z,46.35
2022-12-17T12:31:32.548Z,44.03
2022-12-17T12:34:20.752Z,47.63
2022-12-17T12:37:06.757Z,43.53
2022-12-17T12:40:02.606Z,44.17
2022-12-17T12:42:57.643Z,46.95
2022-12-17T12:46:09.671Z,46.85
2022-12-17T12:49:05.052Z,46.47
2022-12-17T12:51:58.371Z,42.92
2022-12-17T12:54:48.421Z,42.45
2022-12-17T12:57:55.130Z,43.28
2022-12-17T13:00:43.452Z,44.05
2022-12-17T13:03:42.785Z,43.50
2022-12-17T13:06:10.176Z,43.35
2022-12-17T13:08:37.654Z,46.17
2022-12-17T13:11:36.510Z,43.13
2022-12-17T13:14:07.682Z,43.22
2022-12-17T13:16:50.307Z,40.40
2022-12-17T13:19:39.256Z,41.60
2022-12-17T13:22:20.247Z,40.25
2022-12-17T13:24:52.104Z,39.22
2022-12-17T13:27:37.096Z,39.75
2022-12-17T13:30:23.887Z,39.67
2022-12-17T13:33:23.933Z,42.80
2022-12-17T13:36:09.274Z,40.88
2022-12-17T13:38:59.402Z,39.83
2022-12-17T13:41:31.743Z,42.78
2022-12-17T13:44:22.854Z,42.10
2022-12-17T13:46:51.252Z,43.78
2022-12-17T13:49:19.115Z,39.78
2022-12-17T13:51:46.093Z,42.38
2022-12-17T13:54:18.245Z,41.22
2022-12-17T13:56:45.490Z,43.00
2022-12-17T13:59:21.658Z,44.20
2022-12-17T14:01:50.388Z,48.38
2022-12-17T14:05:08.159Z,42.72
2022-12-17T14:08:03.229Z,48.03
2022-12-17T14:10:30.017Z,46.00
2022-12-17T14:13:08.543Z,49.13
2022-12-17T14:15:35.462Z,46.47
2022-12-17T14:18:02.642Z,48.15
2022-12-17T14:20:33.034Z,48.63
2022-12-17T14:23:00.676Z,46.08
2022-12-17T14:25:30.110Z,48.92
2022-12-17T14:28:19.290Z,48.78
2022-12-17T14:31:24.300Z,49.75
2022-12-17T14:33:35.786Z,51.47
2022-12-17T14:36:11.988Z,55.05
2022-12-17T14:38:56.045Z,52.35
2022-12-17T14:41:43.162Z,50.88
2022-12-17T14:44:21.869Z,56.20
2022-12-17T14:46:48.806Z,50.20
2022-12-17T14:49:20.147Z,51.60
2022-12-17T14:51:47.446Z,62.05
2022-12-17T14:54:14.303Z,59.28
2022-12-17T14:56:41.959Z,60.92
2022-12-17T14:59:34.487Z,68.45
2022-12-17T15:02:08.354Z,51.92
2022-12-17T15:04:37.375Z,76.20
2022-12-17T15:07:04.590Z,66.53
2022-12-17T15:09:35.377Z,68.32
2022-12-17T15:12:02.162Z,73.88
2022-12-17T15:14:28.899Z,71.13
2022-12-17T15:16:57.101Z,71.50
2022-12-17T15:19:23.976Z,74.32
2022-12-17T15:21:51.154Z,73.30
2022-12-17T15:24:19.942Z,77.00
2022-12-17T15:26:47.228Z,73.05
2022-12-17T15:29:13.999Z,75.45
2022-12-17T15:31:40.818Z,74.07
2022-12-17T15:34:07.658Z,73.53
2022-12-17T15:36:34.442Z,73.82
2022-12-17T15:39:01.344Z,71.03
2022-12-17T15:41:46.490Z,68.75
2022-12-17T15:44:13.396Z,71.50
2022-12-17T15:46:40.341Z,77.60
2022-12-17T15:49:07.350Z,77.45
2022-12-17T15:51:34.033Z,80.70
2022-12-17T15:54:00.783Z,81.78
2022-12-17T15:56:28.447Z,84.85
2022-12-17T15:58:58.885Z,84.50
2022-12-17T16:01:25.733Z,80.78
2022-12-17T16:03:52.765Z,81.00
2022-12-17T16:06:19.621Z,81.65
2022-12-17T16:08:46.349Z,76.78
2022-12-17T16:11:13.916Z,80.45
2022-12-17T16:13:40.612Z,79.43
2022-12-17T16:16:08.184Z,97.72
2022-12-17T16:18:36.413Z,99.55
2022-12-17T16:21:05.141Z,84.70
2022-12-17T16:23:33.222Z,92.97
2022-12-17T16:26:01.663Z,102.28
2022-12-17T16:28:29.109Z,95.28
2022-12-17T16:31:07.464Z,77.72
2022-12-17T16:33:36.062Z,78.82
2022-12-17T16:36:03.652Z,74.20
2022-12-17T16:38:30.461Z,79.50
2022-12-17T16:40:58.047Z,83.72
2022-12-17T16:43:25.476Z,79.70
2022-12-17T16:45:52.902Z,83.28
2022-12-17T16:48:20.889Z,84.15
2022-12-17T16:50:48.132Z,90.90
2022-12-17T16:53:15.050Z,92.20
2022-12-17T16:55:48.031Z,91.32
2022-12-17T17:00:42.754Z,92.63
2022-12-17T17:03:09.959Z,99.07
2022-12-17T17:05:40.291Z,100.60
2022-12-17T17:08:07.156Z,96.72
2022-12-17T17:10:36.203Z,103.97
2022-12-17T17:13:03.438Z,97.95
2022-12-17T17:15:30.177Z,91.10
2022-12-17T17:18:01.883Z,88.25
2022-12-17T17:20:32.348Z,85.50
2022-12-17T17:22:59.801Z,88.35
2022-12-17T17:25:38.791Z,93.40
2022-12-17T17:28:13.747Z,99.53
2022-12-17T17:30:40.455Z,104.90
2022-12-17T17:33:07.248Z,103.95
2022-12-17T17:35:34.050Z,102.47
2022-12-17T17:38:01.600Z,104.95
2022-12-17T17:40:28.256Z,101.88
2022-12-17T17:42:55.012Z,99.90
2022-12-17T17:45:21.678Z,101.53
2022-12-17T17:47:48.417Z,95.18
2022-12-17T17:50:15.143Z,92.05
2022-12-17T17:52:41.823Z,96.25
2022-12-17T17:55:08.647Z,90.95
2022-12-17T17:57:35.355Z,89.45
2022-12-17T18:00:02.860Z,99.45
2022-12-17T18:02:29.687Z,103.05
2022-12-17T18:04:56.589Z,89.57
2022-12-17T18:07:25.985Z,97.35
2022-12-17T18:09:53.783Z,97.93
2022-12-17T18:12:39.214Z,97.70
2022-12-17T18:15:15.901Z,94.65
2022-12-17T18:17:51.205Z,92.05
2022-12-17T18:20:18.507Z,102.10
2022-12-17T18:22:46.615Z,95.13
2022-12-17T18:25:14.213Z,91.68
2022-12-17T18:27:41.743Z,93.28
2022-12-17T18:30:08.972Z,95.68
2022-12-17T18:32:36.754Z,99.15
2022-12-17T18:35:04.348Z,97.18
2022-12-17T18:37:31.533Z,102.43
2022-12-17T18:39:58.445Z,95.25
2022-12-17T18:42:43.533Z,93.75
2022-12-17T18:45:11.233Z,97.15
2022-12-17T18:47:37.953Z,97.97
2022-12-17T18:50:05.199Z,96.75
2022-12-17T18:52:31.925Z,95.30
2022-12-17T18:54:58.615Z,95.38
2022-12-17T18:57:25.391Z,98.40
2022-12-17T18:59:55.126Z,99.28
2022-12-17T19:02:22.002Z,101.38
2022-12-17T19:04:48.790Z,109.60
2022-12-17T19:07:15.646Z,99.43
2022-12-17T19:09:42.791Z,108.10
2022-12-17T19:12:09.964Z,108.25
2022-12-17T19:14:36.832Z,110.47
2022-12-17T19:17:04.110Z,121.22
2022-12-17T19:19:30.859Z,118.25
2022-12-17T19:21:59.816Z,112.18
2022-12-17T19:24:26.724Z,106.10
2022-12-17T19:26:53.463Z,100.97
2022-12-17T19:29:20.969Z,102.45
2022-12-17T19:31:48.059Z,106.43
2022-12-17T19:34:16.154Z,128.65
2022-12-17T19:36:43.127Z,109.78
2022-12-17T19:39:12.894Z,114.70
2022-12-17T19:41:39.890Z,118.60
2022-12-17T19:44:08.767Z,113.28
2022-12-17T19:46:36.231Z,112.55
2022-12-17T19:49:03.428Z,111.40
2022-12-17T19:51:31.258Z,102.03
2022-12-17T19:54:01.831Z,95.38
2022-12-17T19:56:33.495Z,102.65
2022-12-17T19:59:02.273Z,104.78
2022-12-17T20:01:31.283Z,104.88
2022-12-17T20:03:58.427Z,110.32
2022-12-17T20:06:27.596Z,116.60
2022-12-17T20:08:54.466Z,110.70
2022-12-17T20:11:33.797Z,113.90
2022-12-17T20:14:15.778Z,117.25
2022-12-17T20:16:47.677Z,110.30
2022-12-17T20:19:16.997Z,110.28
2022-12-17T20:21:43.957Z,117.90
2022-12-17T20:24:11.784Z,107.88
2022-12-17T20:26:39.362Z,113.10
2022-12-17T20:29:06.452Z,111.65
2022-12-17T20:31:33.791Z,105.10
2022-12-17T20:34:01.931Z,109.70
2022-12-17T20:36:29.008Z,105.35
2022-12-17T20:38:55.937Z,105.32
2022-12-17T20:41:25.129Z,103.32
2022-12-17T20:43:51.914Z,105.57
2022-12-17T20:46:20.323Z,101.60
2022-12-17T20:48:47.260Z,102.38
2022-12-17T20:51:19.317Z,97.45
2022-12-17T20:53:46.500Z,97.93
2022-12-17T20:56:16.118Z,102.50
2022-12-17T20:58:43.327Z,98.60
2022-12-17T21:01:21.359Z,98.00
2022-12-17T21:03:49.729Z,102.35
2022-12-17T21:06:21.881Z,104.38
2022-12-17T21:08:50.703Z,104.53
2022-12-17T21:11:19.282Z,109.85
2022-12-17T21:13:46.373Z,107.05
2022-12-17T21:16:18.836Z,107.05
2022-12-17T21:18:46.099Z,105.82
2022-12-17T21:21:16.317Z,108.72
2022-12-17T21:23:43.193Z,103.22
2022-12-17T21:26:13.521Z,96.45
2022-12-17T21:28:42.557Z,96.65
2022-12-17T21:31:32.892Z,94.38
2022-12-17T21:34:01.265Z,103.05
2022-12-17T21:36:30.243Z,98.30
2022-12-17T21:38:58.666Z,106.65
2022-12-17T21:41:28.217Z,96.10
2022-12-17T21:44:01.400Z,95.95
2022-12-17T21:46:28.949Z,97.00
2022-12-17T21:48:57.629Z,96.28
2022-12-17T21:51:24.635Z,98.97
2022-12-17T21:53:56.406Z,102.60
2022-12-17T21:56:23.459Z,101.80
2022-12-17T21:58:50.840Z,99.97
2022-12-17T22:01:22.212Z,101.78
2022-12-17T22:03:54.120Z,97.07
2022-12-17T22:06:23.945Z,100.40
2022-12-17T22:08:56.915Z,100.45
2022-12-17T22:11:29.234Z,99.13
2022-12-17T22:14:07.235Z,101.55
2022-12-17T22:16:47.036Z,101.82
2022-12-17T22:19:16.212Z,103.32
2022-12-17T22:21:44.967Z,91.60
2022-12-17T22:24:17.292Z,100.03
2022-12-17T22:26:44.341Z,96.35
2022-12-17T22:29:11.182Z,98.32
2022-12-17T22:31:56.506Z,100.00
2022-12-17T22:35:38.300Z,96.60
2022-12-17T22:39:53.358Z,95.22
2022-12-17T22:43:32.230Z,100.55
2022-12-17T22:44:49.498Z,97.70
2022-12-17T22:45:49.097Z,94.60
2022-12-17T22:48:16.141Z,98.20
2022-12-17T22:50:55.874Z,100.38
2022-12-17T22:53:29.779Z,118.30
2022-12-17T22:55:57.337Z,102.45
2022-12-17T22:58:25.030Z,102.07
2022-12-17T23:00:51.724Z,109.28
2022-12-17T23:03:18.550Z,97.10
2022-12-17T23:05:45.357Z,102.07
2022-12-17T23:08:12.019Z,103.32
2022-12-17T23:10:38.713Z,100.43
2022-12-17T23:13:05.367Z,95.82
2022-12-17T23:15:36.715Z,95.38
2022-12-17T23:18:06.149Z,99.28
2022-12-17T23:20:34.278Z,88.47
2022-12-17T23:23:01.201Z,92.43
2022-12-17T23:25:29.359Z,92.50
2022-12-17T23:27:56.177Z,88.15
2022-12-17T23:30:22.924Z,95.72
2022-12-17T23:32:49.624Z,91.35
2022-12-17T23:35:16.345Z,99.72
2022-12-17T23:37:43.043Z,92.75
2022-12-17T23:40:10.652Z,103.28
2022-12-17T23:42:37.705Z,92.47
2022-12-17T23:45:06.105Z,95.93
2022-12-17T23:47:32.986Z,93.82
2022-12-17T23:49:59.703Z,88.03
2022-12-17T23:52:26.389Z,89.60
2022-12-17T23:54:53.095Z,97.15
2022-12-17T23:57:19.998Z,95.65
2022-12-17T23:59:46.885Z,96.78
